Aérodrome :
LOGIN :

S'inscrire | Disclaimer

   EN    FR    IT 

 










Légende :    VFR   VFR Marginal   IFR   IFR Intensif   IFR Très Intensif
Visi : 
Plafond : 
>= 8 km
>= 3000ft
5 à 8 km
1000 à 3000 ft
1500m à 5 km
500 à 1000 ft
800 à 1500m
200 à 500 ft
< 800m
< 200 ft
Symboles :   Orages  Brouillard  Fortes neiges  Fortes précipitations  Vent > 20 kt
SIGMETs :   Divers  Orages  Givrage  Turbulence  Onde Orograph.  Cendres Volcan.







- Altitude de l'aérodrome : 90 ft
- Code IATA : NTE
- Voir les cartes d'approche


LFRS - Nantes

DERNIER METAR :
  • 211300Z AUTO 06009KT 010V090 9999 FEW038 15/06 Q1032 NOSIG

METARs EXPIRÉS :
  • 211230Z AUTO 06010KT 360V110 9999 FEW039 16/07 Q1032 NOSIG
  • 211200Z AUTO 06009KT 010V090 9999 BKN039 15/06 Q1033 NOSIG
  • 211130Z AUTO 06010KT 020V080 9999 BKN038 14/06 Q1033 NOSIG
  • 211100Z AUTO 06009KT 010V100 9999 FEW030 14/06 Q1033 NOSIG
  • 211030Z AUTO 05009KT 020V080 CAVOK 14/07 Q1033 NOSIG

TAF TAF LFRS
Valide du 21 à 12h jusqu'au 22 à 18h UTC


211100Z 2112/2218 03005KT CAVOK
TEMPO 2200/2208 3000 BR
TEMPO 2202/2207 0500 FG VV///
ATIS : +33 2 40 05 12 74
Pas de NOTAMs connus pour ce terrain.



MET'MAP, la Météo Aéronautique d'un coup d'oeil ! - Copyright ORBIFLY Décembre 2007 - Disclaimer

ORBIFLY MET'MAP TEAM :

Programmation & Développement : Alexandra Zaïnal
Conception & Développement : Baudouin d'Aumeries
Co-Programmation & Développement : Marc-Olivier Méhu
Soutien technique & logistique : Manuel Goepfert

Contact : metmap@orbifly.com




SOURCES & CREDITS :

   NOAA